Time;durP1;ratioP1;P1;durP2;ratioP2;P2;SDS_P1;SDS_P2;PMS_P1;PMS_P2;Temp;Humidity;BMP_temperature;BMP_pressure;BME280_temperature;BME280_humidity;BME280_pressure;Samples;Min_cycle;Max_cycle;Signal;HPM_P1;HPM_P2
2020/12/05 00:01:23;;;;;;;31.73;12.10;;;8.20;78.40;;;;;;4970140;28;20121;-62
2020/12/05 00:03:49;;;;;;;29.90;12.43;;;8.20;78.40;;;;;;4971585;28;20527;-62
2020/12/05 00:06:22;;;;;;;30.25;12.98;;;8.20;78.50;;;;;;4971836;28;20039;-62
2020/12/05 00:08:51;;;;;;;32.22;13.02;;;8.20;78.40;;;;;;4971534;28;20034;-63
2020/12/05 00:11:27;;;;;;;32.95;12.68;;;8.20;78.50;;;;;;4972073;28;20477;-62
2020/12/05 00:13:53;;;;;;;32.72;11.88;;;8.20;78.50;;;;;;4971664;28;20027;-61
2020/12/05 00:16:19;;;;;;;31.70;11.93;;;8.20;78.50;;;;;;4971106;28;20029;-64
2020/12/05 00:18:46;;;;;;;28.55;13.18;;;8.20;78.50;;;;;;4971531;28;20038;-61
2020/12/05 00:21:15;;;;;;;28.90;12.10;;;8.20;78.40;;;;;;4970974;28;20023;-61
2020/12/05 00:23:41;;;;;;;25.85;12.10;;;8.20;78.50;;;;;;4971110;28;20030;-63
2020/12/05 00:26:07;;;;;;;38.22;13.02;;;8.20;78.50;;;;;;4971611;28;20039;-64
2020/12/05 00:28:32;;;;;;;28.65;12.68;;;8.20;78.50;;;;;;4970878;28;20035;-62
2020/12/05 00:30:58;;;;;;;28.75;12.60;;;8.20;78.50;;;;;;4970287;28;20039;-64
2020/12/05 00:33:23;;;;;;;28.58;11.77;;;8.20;78.40;;;;;;4971557;28;20118;-63
2020/12/05 00:35:49;;;;;;;28.35;11.75;;;8.20;78.50;;;;;;4971799;28;20022;-62
2020/12/05 00:38:15;;;;;;;31.23;13.07;;;8.20;78.40;;;;;;4971824;28;20055;-62
2020/12/05 00:40:40;;;;;;;28.90;12.13;;;8.20;78.30;;;;;;4969081;28;20035;-62
2020/12/05 00:43:06;;;;;;;33.25;13.02;;;8.20;78.40;;;;;;4970531;28;20030;-62
2020/12/05 00:45:31;;;;;;;30.45;12.57;;;8.20;78.40;;;;;;4970736;28;20038;-62
2020/12/05 00:47:57;;;;;;;31.92;12.88;;;8.20;78.50;;;;;;4971744;28;20073;-63
2020/12/05 00:50:22;;;;;;;37.65;12.52;;;8.20;78.40;;;;;;4970883;28;20050;-63
2020/12/05 00:52:48;;;;;;;29.85;12.30;;;8.20;78.40;;;;;;4971517;28;20031;-62
2020/12/05 00:55:14;;;;;;;33.63;13.85;;;8.20;78.50;;;;;;4970783;28;20097;-63
2020/12/05 00:57:39;;;;;;;23.33;9.27;;;8.20;78.40;;;;;;4970605;28;20030;-62
2020/12/05 01:00:08;;;;;;;36.00;13.10;;;8.20;78.40;;;;;;4970164;28;20532;-63
2020/12/05 01:02:34;;;;;;;31.60;10.95;;;8.10;78.30;;;;;;4969628;28;20428;-63
2020/12/05 01:05:00;;;;;;;32.88;13.25;;;8.20;78.40;;;;;;4971515;28;20039;-62
2020/12/05 01:07:25;;;;;;;23.55;9.70;;;8.10;78.30;;;;;;4971180;28;20146;-64
2020/12/05 01:09:53;;;;;;;31.52;13.63;;;8.10;78.20;;;;;;4971221;28;20027;-63
2020/12/05 01:12:18;;;;;;;32.92;12.20;;;8.20;78.30;;;;;;4970724;28;20418;-63
2020/12/05 01:14:44;;;;;;;31.85;11.43;;;8.10;78.30;;;;;;4970554;28;20166;-62
2020/12/05 01:17:10;;;;;;;29.38;11.85;;;8.10;78.30;;;;;;4971247;28;20113;-62
2020/12/05 01:19:35;;;;;;;34.92;12.05;;;8.10;78.20;;;;;;4971374;28;20023;-64
2020/12/05 01:22:01;;;;;;;29.08;11.55;;;8.10;78.20;;;;;;4970309;28;20184;-63
2020/12/05 01:24:26;;;;;;;31.77;12.30;;;8.10;78.20;;;;;;4970825;28;20589;-63
2020/12/05 01:26:52;;;;;;;27.15;10.98;;;8.20;78.20;;;;;;4967618;28;20047;-62
2020/12/05 01:29:18;;;;;;;32.83;11.82;;;8.10;78.20;;;;;;4969471;28;20034;-62
2020/12/05 01:31:47;;;;;;;33.13;12.50;;;8.10;78.10;;;;;;4970512;28;20484;-62
2020/12/05 01:34:13;;;;;;;33.63;11.73;;;8.10;78.20;;;;;;4971324;28;20038;-63
2020/12/05 01:36:45;;;;;;;27.52;10.70;;;8.10;78.20;;;;;;4970717;28;20031;-63
2020/12/05 01:39:12;;;;;;;28.60;10.75;;;8.10;78.30;;;;;;4970956;28;20105;-62
2020/12/05 01:41:38;;;;;;;32.13;11.57;;;8.10;78.20;;;;;;4959472;28;20386;-63
2020/12/05 01:44:04;;;;;;;26.17;11.23;;;8.10;78.20;;;;;;4951495;28;20122;-62
2020/12/05 01:46:38;;;;;;;26.92;11.13;;;8.10;78.20;;;;;;4951449;28;20071;-63
2020/12/05 01:49:09;;;;;;;32.85;12.40;;;8.10;78.20;;;;;;4967445;28;20030;-62
2020/12/05 01:51:35;;;;;;;33.35;12.60;;;8.10;78.20;;;;;;4970061;28;20570;-63
2020/12/05 01:54:02;;;;;;;24.90;10.75;;;8.10;78.20;;;;;;4970844;28;20063;-64
2020/12/05 01:56:28;;;;;;;34.25;11.95;;;8.10;78.20;;;;;;4970357;28;20476;-62
2020/12/05 01:58:54;;;;;;;35.85;12.32;;;8.10;78.20;;;;;;4968131;28;20174;-63
2020/12/05 02:01:21;;;;;;;27.75;10.88;;;8.10;78.20;;;;;;4969181;28;20050;-63
2020/12/05 02:03:50;;;;;;;27.48;10.82;;;8.10;78.30;;;;;;4970456;28;20023;-62
2020/12/05 02:06:37;;;;;;;27.33;9.80;;;8.10;78.20;;;;;;4969921;28;20043;-63
2020/12/05 02:09:14;;;;;;;28.85;11.60;;;8.10;78.30;;;;;;4970691;28;20049;-61
2020/12/05 02:11:42;;;;;;;26.92;11.55;;;8.10;78.20;;;;;;4974098;28;20339;-62
2020/12/05 02:14:10;;;;;;;25.40;10.65;;;8.10;78.20;;;;;;4974039;28;20033;-62
2020/12/05 02:16:39;;;;;;;24.52;9.63;;;8.10;78.30;;;;;;4973332;28;20478;-62
2020/12/05 02:19:08;;;;;;;31.38;10.90;;;8.10;78.30;;;;;;4972951;28;20035;-65
2020/12/05 02:21:38;;;;;;;25.33;10.57;;;8.10;78.30;;;;;;4972384;28;20113;-63
2020/12/05 02:24:04;;;;;;;26.83;10.60;;;8.10;78.30;;;;;;4973942;28;20073;-63
2020/12/05 02:26:30;;;;;;;25.63;9.68;;;8.10;78.30;;;;;;4974005;28;20070;-63
2020/12/05 02:28:56;;;;;;;27.00;9.20;;;8.10;78.30;;;;;;4973959;28;20027;-64
2020/12/05 02:31:25;;;;;;;27.30;10.82;;;8.10;78.60;;;;;;4972966;28;20031;-63
2020/12/05 02:33:50;;;;;;;28.08;10.88;;;8.10;78.40;;;;;;4973422;28;20027;-62
2020/12/05 02:36:16;;;;;;;23.67;10.40;;;8.10;78.40;;;;;;4973319;28;20477;-62
2020/12/05 02:38:57;;;;;;;33.38;11.23;;;8.20;78.30;;;;;;4973284;28;20058;-62
2020/12/05 02:41:23;;;;;;;29.23;10.25;;;8.20;78.40;;;;;;4964868;28;20520;-63
2020/12/05 02:43:49;;;;;;;27.23;10.65;;;8.10;78.30;;;;;;4980115;28;20123;-62
2020/12/05 02:46:15;;;;;;;27.42;10.05;;;8.10;78.50;;;;;;4972888;28;20450;-63
2020/12/05 02:48:41;;;;;;;29.00;11.95;;;8.10;78.50;;;;;;4972377;28;20544;-63
2020/12/05 02:51:06;;;;;;;26.85;10.38;;;8.20;78.50;;;;;;4972704;28;20385;-61
2020/12/05 02:53:32;;;;;;;23.65;9.25;;;8.10;78.40;;;;;;4973410;28;20027;-62
2020/12/05 02:55:57;;;;;;;23.20;9.68;;;8.20;78.50;;;;;;4973690;28;20080;-62
2020/12/05 02:58:23;;;;;;;27.35;11.02;;;8.20;78.60;;;;;;4973145;28;20489;-63
2020/12/05 03:00:48;;;;;;;20.38;9.88;;;8.20;78.50;;;;;;4955237;28;20027;-63
2020/12/05 03:03:14;;;;;;;24.63;10.15;;;8.20;78.60;;;;;;4968314;28;20035;-62
2020/12/05 03:05:40;;;;;;;30.35;11.10;;;8.20;78.40;;;;;;4972858;28;20023;-62
2020/12/05 03:08:05;;;;;;;27.55;10.25;;;8.20;78.40;;;;;;4971743;28;20034;-62
2020/12/05 03:10:31;;;;;;;22.02;10.05;;;8.20;78.50;;;;;;4973022;28;20484;-63
2020/12/05 03:12:56;;;;;;;25.25;10.88;;;8.20;78.50;;;;;;4972743;28;20023;-63
2020/12/05 03:15:22;;;;;;;24.88;10.35;;;8.20;78.60;;;;;;4972491;28;20046;-62
2020/12/05 03:17:48;;;;;;;26.75;10.27;;;8.20;78.50;;;;;;4972749;28;20035;-62
2020/12/05 03:20:13;;;;;;;18.15;8.90;;;8.20;78.60;;;;;;4972974;28;20519;-63
2020/12/05 03:22:39;;;;;;;21.30;10.10;;;8.20;78.60;;;;;;4970812;28;20030;-62
2020/12/05 03:25:05;;;;;;;24.00;9.82;;;8.20;78.60;;;;;;4972888;28;20023;-63
2020/12/05 03:27:30;;;;;;;25.23;9.73;;;8.20;78.60;;;;;;4972254;28;20448;-64
2020/12/05 03:29:56;;;;;;;22.05;8.60;;;8.20;78.60;;;;;;4972207;28;20031;-62
2020/12/05 03:32:28;;;;;;;17.35;8.13;;;8.20;78.70;;;;;;4971826;28;20477;-63
2020/12/05 03:34:53;;;;;;;21.27;9.82;;;8.20;78.60;;;;;;4972600;28;20038;-62
2020/12/05 03:37:20;;;;;;;28.67;10.20;;;8.20;78.60;;;;;;4971978;28;20050;-62
2020/12/05 03:39:45;;;;;;;26.33;8.38;;;8.20;78.80;;;;;;4972724;28;20034;-62
2020/12/05 03:42:11;;;;;;;18.08;9.15;;;8.20;78.70;;;;;;4956723;28;20031;-62
2020/12/05 03:44:37;;;;;;;19.08;7.90;;;8.20;79.10;;;;;;4952666;28;20078;-63
2020/12/05 03:47:02;;;;;;;17.98;7.97;;;8.20;79.60;;;;;;4952890;28;20153;-64
2020/12/05 03:49:32;;;;;;;19.55;8.60;;;8.20;79.00;;;;;;4953180;28;20030;-61
2020/12/05 03:52:01;;;;;;;15.15;6.90;;;8.20;78.70;;;;;;4952766;28;20042;-62
2020/12/05 03:54:27;;;;;;;19.88;8.38;;;8.20;78.90;;;;;;4959564;28;20035;-62
2020/12/05 03:56:53;;;;;;;14.23;6.78;;;8.20;78.90;;;;;;4971888;28;20125;-63
2020/12/05 03:59:19;;;;;;;15.52;6.88;;;8.20;79.00;;;;;;4971420;28;20446;-63
2020/12/05 04:01:44;;;;;;;14.77;7.68;;;8.20;79.00;;;;;;4972080;28;20114;-62
2020/12/05 04:04:10;;;;;;;13.48;6.50;;;8.20;79.00;;;;;;4972059;28;20023;-62
2020/12/05 04:06:36;;;;;;;12.80;6.60;;;8.20;79.00;;;;;;4971876;28;20046;-62
2020/12/05 04:09:02;;;;;;;17.65;6.68;;;8.20;79.00;;;;;;4972127;28;20037;-62
2020/12/05 04:11:27;;;;;;;11.88;6.03;;;8.20;78.90;;;;;;4971296;28;20026;-61
2020/12/05 04:13:53;;;;;;;9.82;6.35;;;8.20;79.00;;;;;;4971424;28;20034;-63
2020/12/05 04:16:19;;;;;;;12.30;5.75;;;8.20;79.00;;;;;;4971664;28;20096;-61
2020/12/05 04:18:44;;;;;;;10.10;5.57;;;8.20;79.00;;;;;;4970732;28;20042;-62
2020/12/05 04:21:10;;;;;;;12.38;6.78;;;8.20;79.00;;;;;;4971732;28;20034;-62
2020/12/05 04:23:35;;;;;;;15.73;5.78;;;8.20;79.00;;;;;;4971225;28;20042;-63
2020/12/05 04:26:01;;;;;;;17.65;9.05;;;8.20;79.10;;;;;;4971799;28;20133;-63
2020/12/05 04:28:27;;;;;;;20.30;8.73;;;8.30;79.20;;;;;;4970649;28;20023;-63
2020/12/05 04:30:53;;;;;;;20.98;9.20;;;8.20;79.10;;;;;;4971610;28;20134;-63
2020/12/05 04:33:18;;;;;;;19.30;8.68;;;8.20;79.10;;;;;;4971046;28;20026;-62
2020/12/05 04:35:44;;;;;;;20.00;9.10;;;8.20;79.40;;;;;;4971310;28;20429;-62
2020/12/05 04:38:09;;;;;;;17.77;7.55;;;8.20;79.40;;;;;;4971572;28;20079;-62
2020/12/05 04:40:35;;;;;;;16.35;7.93;;;8.20;79.30;;;;;;4960769;28;20086;-62
2020/12/05 04:43:02;;;;;;;17.83;7.65;;;8.30;79.40;;;;;;4951944;28;20028;-62
2020/12/05 04:45:28;;;;;;;17.38;7.93;;;8.20;79.40;;;;;;4952256;28;20387;-62
2020/12/05 04:47:56;;;;;;;18.73;8.13;;;8.20;79.40;;;;;;4952221;28;20036;-62
2020/12/05 04:50:23;;;;;;;19.80;9.27;;;8.20;79.50;;;;;;4963209;28;20039;-62
2020/12/05 04:52:51;;;;;;;16.77;8.00;;;8.30;79.40;;;;;;4971410;28;20031;-62
2020/12/05 04:55:22;;;;;;;17.50;7.65;;;8.30;79.50;;;;;;4971525;28;20027;-64
2020/12/05 04:57:58;;;;;;;12.45;6.55;;;8.30;79.60;;;;;;4970827;28;20023;-62
2020/12/05 05:00:26;;;;;;;15.27;7.65;;;8.30;79.60;;;;;;4971143;28;20388;-63
2020/12/05 05:02:56;;;;;;;17.25;7.47;;;8.30;79.40;;;;;;4971156;28;20089;-62
2020/12/05 05:05:23;;;;;;;;;;;8.30;79.70;;;;;;4971369;28;20034;-62
2020/12/05 05:07:51;;;;;;;19.85;8.88;;;8.30;79.50;;;;;;4970752;28;20297;-63
2020/12/05 05:10:21;;;;;;;13.98;6.95;;;8.30;79.60;;;;;;4970623;28;20030;-62
2020/12/05 05:12:47;;;;;;;19.75;7.20;;;8.30;79.60;;;;;;4971428;28;20481;-63
2020/12/05 05:15:28;;;;;;;18.60;7.85;;;8.30;79.70;;;;;;4971424;28;20042;-62
2020/12/05 05:17:56;;;;;;;17.63;8.10;;;8.30;79.70;;;;;;4970505;28;20026;-63
2020/12/05 05:20:22;;;;;;;18.52;8.40;;;8.30;79.60;;;;;;4970418;28;20509;-63
2020/12/05 05:22:51;;;;;;;20.75;8.68;;;8.30;79.60;;;;;;4971064;28;20053;-63
2020/12/05 05:25:18;;;;;;;17.33;8.70;;;8.30;79.60;;;;;;4970692;28;20515;-62
2020/12/05 05:27:57;;;;;;;18.83;7.65;;;8.30;79.80;;;;;;4970939;28;20508;-63
2020/12/05 05:30:23;;;;;;;11.70;6.00;;;8.30;79.70;;;;;;4970894;28;20023;-62
2020/12/05 05:32:50;;;;;;;15.23;6.78;;;8.30;79.80;;;;;;4971125;28;20602;-62
2020/12/05 05:35:16;;;;;;;17.38;7.47;;;8.30;79.80;;;;;;4970389;28;20034;-62
2020/12/05 05:37:43;;;;;;;14.20;7.05;;;8.30;79.80;;;;;;4970569;28;20074;-63
2020/12/05 05:40:11;;;;;;;19.65;8.35;;;8.30;79.90;;;;;;4963855;28;20070;-62
2020/12/05 05:42:39;;;;;;;15.20;7.10;;;8.30;79.80;;;;;;4951396;28;20027;-62
2020/12/05 05:45:19;;;;;;;18.30;6.65;;;8.30;79.90;;;;;;4953566;28;20043;-62
2020/12/05 05:47:46;;;;;;;16.02;6.75;;;8.30;80.00;;;;;;4961245;28;20619;-63
2020/12/05 05:50:26;;;;;;;18.67;6.22;;;8.30;80.00;;;;;;4983970;28;20034;-62
2020/12/05 05:53:00;;;;;;;15.05;7.22;;;8.30;80.10;;;;;;4983090;28;20034;-63
2020/12/05 05:55:38;;;;;;;17.77;7.28;;;8.30;79.90;;;;;;4976243;28;20066;-62
2020/12/05 05:58:05;;;;;;;13.05;5.80;;;8.30;79.90;;;;;;4980140;28;20030;-62
2020/12/05 06:00:37;;;;;;;15.32;5.60;;;8.30;79.80;;;;;;4981611;28;20050;-63
2020/12/05 06:03:19;;;;;;;13.95;5.95;;;8.30;80.00;;;;;;4983298;28;20072;-62
2020/12/05 06:05:47;;;;;;;13.50;6.07;;;8.30;80.00;;;;;;4982008;28;20026;-62
2020/12/05 06:08:16;;;;;;;14.60;7.38;;;8.30;80.00;;;;;;4984359;28;20042;-64
2020/12/05 06:10:47;;;;;;;11.33;6.03;;;8.30;80.00;;;;;;4982811;28;20066;-64
2020/12/05 06:13:17;;;;;;;11.73;6.53;;;8.30;79.90;;;;;;4954952;28;20541;-65
2020/12/05 06:15:45;;;;;;;13.40;6.38;;;8.30;80.00;;;;;;4970158;28;20046;-65
2020/12/05 06:18:15;;;;;;;16.13;6.22;;;8.30;80.00;;;;;;4976091;28;20030;-64
2020/12/05 06:20:45;;;;;;;13.52;6.15;;;8.30;80.30;;;;;;4980175;28;20033;-64
2020/12/05 06:23:25;;;;;;;15.77;6.43;;;8.30;80.30;;;;;;4973195;28;20043;-65
2020/12/05 06:25:52;;;;;;;16.85;7.10;;;8.30;80.00;;;;;;4973713;28;20447;-66
2020/12/05 06:28:19;;;;;;;14.45;6.05;;;8.40;80.30;;;;;;4973725;28;20031;-65
2020/12/05 06:30:46;;;;;;;11.70;5.60;;;8.30;80.10;;;;;;4971877;28;20031;-64
2020/12/05 06:33:36;;;;;;;15.00;7.32;;;8.30;80.30;;;;;;4973120;28;20033;-65
2020/12/05 06:36:01;;;;;;;12.03;5.43;;;8.30;80.10;;;;;;4972871;28;20034;-65
2020/12/05 06:38:27;;;;;;;16.10;6.85;;;8.40;80.40;;;;;;4973639;28;20286;-65
2020/12/05 06:40:52;;;;;;;10.38;5.28;;;8.30;80.30;;;;;;4962274;28;20043;-65
2020/12/05 06:43:18;;;;;;;15.75;7.18;;;8.40;80.30;;;;;;4971591;28;20074;-66
2020/12/05 06:45:44;;;;;;;14.80;5.07;;;8.40;80.20;;;;;;4972905;28;20030;-64
2020/12/05 06:48:09;;;;;;;14.50;5.95;;;8.40;80.10;;;;;;4972282;28;20425;-65
2020/12/05 06:50:37;;;;;;;14.38;5.85;;;8.40;80.20;;;;;;4972518;28;20514;-65
2020/12/05 06:53:23;;;;;;;15.95;6.43;;;8.40;80.20;;;;;;4973363;28;20033;-65
2020/12/05 06:55:50;;;;;;;16.75;6.20;;;8.40;80.00;;;;;;4973094;28;20612;-65
2020/12/05 06:58:24;;;;;;;11.40;5.88;;;8.40;80.20;;;;;;4972666;28;20070;-64
2020/12/05 07:00:50;;;;;;;16.25;6.72;;;8.40;80.10;;;;;;4955046;28;20078;-64
2020/12/05 07:03:27;;;;;;;16.45;5.75;;;8.30;80.30;;;;;;4954441;28;23101;-65
2020/12/05 07:05:53;;;;;;;12.98;5.57;;;8.40;80.40;;;;;;4968803;28;20690;-65
2020/12/05 07:08:30;;;;;;;9.68;5.80;;;8.40;80.40;;;;;;4972361;28;20038;-64
2020/12/05 07:11:03;;;;;;;13.73;6.50;;;8.40;80.60;;;;;;4971093;28;20109;-64
2020/12/05 07:13:30;;;;;;;12.02;6.10;;;8.40;80.50;;;;;;4972195;28;20027;-64
2020/12/05 07:16:21;;;;;;;15.95;6.97;;;8.40;80.50;;;;;;4971956;28;20031;-65
2020/12/05 07:18:53;;;;;;;10.35;5.75;;;8.40;80.30;;;;;;4958525;28;20065;-65
2020/12/05 07:21:19;;;;;;;12.77;6.05;;;8.40;80.70;;;;;;4957309;28;20024;-65
2020/12/05 07:23:46;;;;;;;12.88;5.72;;;8.40;80.70;;;;;;4956843;28;20445;-64
2020/12/05 07:26:11;;;;;;;11.80;5.60;;;8.40;80.60;;;;;;4970650;28;20521;-64
2020/12/05 07:28:37;;;;;;;11.57;6.10;;;8.40;80.50;;;;;;4971442;28;20810;-64
2020/12/05 07:31:03;;;;;;;18.05;6.72;;;8.40;80.50;;;;;;4971589;28;20499;-64
2020/12/05 07:33:30;;;;;;;9.73;5.13;;;8.40;80.40;;;;;;4972412;28;20037;-65
2020/12/05 07:36:05;;;;;;;13.98;5.95;;;8.40;80.40;;;;;;4972048;28;20081;-65
2020/12/05 07:38:33;;;;;;;14.50;6.03;;;8.40;80.50;;;;;;4972032;28;20082;-65
2020/12/05 07:40:59;;;;;;;10.55;4.50;;;8.40;80.60;;;;;;4971184;28;20038;-64
2020/12/05 07:43:25;;;;;;;11.40;6.40;;;8.40;80.40;;;;;;4972494;28;20026;-65
2020/12/05 07:45:52;;;;;;;10.05;5.60;;;8.40;80.60;;;;;;4971938;28;20043;-64
2020/12/05 07:48:21;;;;;;;14.05;6.40;;;8.40;80.50;;;;;;4970893;28;20027;-66
2020/12/05 07:50:47;;;;;;;12.32;5.55;;;8.40;80.50;;;;;;4971399;28;20106;-65
2020/12/05 07:53:24;;;;;;;15.60;5.63;;;8.40;80.80;;;;;;4971604;28;20033;-64
2020/12/05 07:55:50;;;;;;;13.85;6.75;;;8.40;80.90;;;;;;4971513;28;20028;-65
2020/12/05 07:58:16;;;;;;;15.70;7.28;;;8.40;80.70;;;;;;4971322;28;20454;-64
2020/12/05 08:00:42;;;;;;;12.10;5.95;;;8.40;80.70;;;;;;4969531;28;20114;-64
2020/12/05 08:03:37;;;;;;;12.98;6.00;;;8.40;80.70;;;;;;4971370;28;20065;-64
2020/12/05 08:06:13;;;;;;;12.02;6.18;;;8.50;80.80;;;;;;4971192;28;20078;-64
2020/12/05 08:08:46;;;;;;;13.45;6.45;;;8.40;80.70;;;;;;4968364;28;20101;-64
2020/12/05 08:11:12;;;;;;;14.73;6.55;;;8.40;80.80;;;;;;4969590;28;20033;-65
2020/12/05 08:13:38;;;;;;;13.45;6.68;;;8.50;80.90;;;;;;4999611;28;20109;-65
2020/12/05 08:16:06;;;;;;;11.10;6.03;;;8.40;80.70;;;;;;4970918;28;20126;-64
2020/12/05 08:18:36;;;;;;;11.23;5.93;;;8.40;80.80;;;;;;4968557;28;20137;-65
2020/12/05 08:21:05;;;;;;;10.88;5.68;;;8.40;80.90;;;;;;4969642;28;20023;-65
2020/12/05 08:23:32;;;;;;;10.90;5.32;;;8.40;81.50;;;;;;4970234;28;20090;-64
2020/12/05 08:26:03;;;;;;;10.20;5.03;;;8.40;81.30;;;;;;4970508;28;20576;-64
2020/12/05 08:28:31;;;;;;;13.00;6.55;;;8.50;81.30;;;;;;4970185;28;20043;-65
2020/12/05 08:31:03;;;;;;;11.43;6.35;;;8.50;81.90;;;;;;4970213;28;20410;-64
2020/12/05 08:33:28;;;;;;;14.95;6.20;;;8.50;81.10;;;;;;4970406;28;20069;-64
2020/12/05 08:35:54;;;;;;;14.88;6.35;;;8.50;80.90;;;;;;4971301;28;20023;-65
2020/12/05 08:38:22;;;;;;;13.25;6.63;;;8.50;81.30;;;;;;4970204;28;20038;-65
2020/12/05 08:40:59;;;;;;;11.88;5.63;;;8.50;81.00;;;;;;4968889;28;20541;-64
2020/12/05 08:43:26;;;;;;;11.70;5.93;;;8.50;81.30;;;;;;4967111;28;20497;-65
2020/12/05 08:45:51;;;;;;;16.33;5.85;;;8.50;82.20;;;;;;4969597;28;20031;-64
2020/12/05 08:48:18;;;;;;;14.02;5.90;;;8.50;81.20;;;;;;4970347;28;20033;-66
2020/12/05 08:50:44;;;;;;;12.18;6.05;;;8.50;81.10;;;;;;4968670;28;20027;-64
2020/12/05 08:53:12;;;;;;;10.88;6.18;;;8.50;80.90;;;;;;4982071;28;20094;-64
2020/12/05 08:55:37;;;;;;;15.30;6.07;;;8.50;81.50;;;;;;4970200;28;20031;-64
2020/12/05 08:58:05;;;;;;;12.60;6.00;;;8.50;81.40;;;;;;4966237;28;20027;-64
2020/12/05 09:00:33;;;;;;;15.52;7.18;;;8.60;81.40;;;;;;4967304;28;20074;-66
2020/12/05 09:02:58;;;;;;;13.68;6.97;;;8.50;81.10;;;;;;4966341;28;20031;-65
2020/12/05 09:05:24;;;;;;;11.18;5.70;;;8.50;81.10;;;;;;4965818;28;20042;-65
2020/12/05 09:07:58;;;;;;;13.75;6.85;;;8.50;81.30;;;;;;4969837;28;20069;-66
2020/12/05 09:10:26;;;;;;;11.65;5.55;;;8.50;81.10;;;;;;4956667;28;20055;-64
2020/12/05 09:12:52;;;;;;;15.00;7.30;;;8.50;81.50;;;;;;4959085;28;20488;-65
2020/12/05 09:15:19;;;;;;;13.85;6.65;;;8.50;81.40;;;;;;4959175;28;20070;-65
2020/12/05 09:17:45;;;;;;;8.23;5.03;;;8.60;81.10;;;;;;4968510;28;20034;-64
2020/12/05 09:20:20;;;;;;;12.23;6.40;;;8.60;81.70;;;;;;4967892;28;20027;-65
2020/12/05 09:22:53;;;;;;;15.10;6.60;;;8.60;81.50;;;;;;4963563;28;20045;-64
2020/12/05 09:25:28;;;;;;;11.27;5.55;;;8.60;81.70;;;;;;4971033;28;20060;-65
2020/12/05 09:27:53;;;;;;;11.40;5.55;;;8.60;81.50;;;;;;4985309;28;20080;-65
2020/12/05 09:30:19;;;;;;;11.75;5.95;;;8.60;81.30;;;;;;4979962;28;20031;-64
2020/12/05 09:32:47;;;;;;;23.30;7.40;;;8.60;81.20;;;;;;4973274;28;20097;-64
2020/12/05 09:35:15;;;;;;;15.85;7.95;;;8.60;81.30;;;;;;4967076;28;20049;-64
2020/12/05 09:37:41;;;;;;;18.35;7.35;;;8.60;81.30;;;;;;4965189;28;20474;-64
2020/12/05 09:40:11;;;;;;;16.98;7.57;;;8.60;81.40;;;;;;4965630;28;20037;-65
2020/12/05 09:42:37;;;;;;;8.35;4.53;;;8.60;81.70;;;;;;4969562;28;20553;-65
2020/12/05 09:45:04;;;;;;;11.10;5.50;;;8.60;81.50;;;;;;4971340;28;20151;-65
2020/12/05 09:47:30;;;;;;;14.45;6.60;;;8.60;81.70;;;;;;4971049;28;20055;-64
2020/12/05 09:49:55;;;;;;;12.38;4.63;;;8.60;81.50;;;;;;4968887;28;20038;-66
2020/12/05 09:52:21;;;;;;;8.90;4.68;;;8.60;81.70;;;;;;4962985;28;20450;-64
2020/12/05 09:54:47;;;;;;;11.73;5.95;;;8.60;81.90;;;;;;4970168;28;20037;-65
2020/12/05 09:57:15;;;;;;;9.35;5.47;;;8.60;81.50;;;;;;4965453;28;20034;-64
2020/12/05 09:59:44;;;;;;;11.90;6.03;;;8.60;81.40;;;;;;4965970;28;20054;-64
2020/12/05 10:02:10;;;;;;;12.02;5.72;;;8.60;82.00;;;;;;4972691;28;20030;-63
2020/12/05 10:04:36;;;;;;;10.13;5.05;;;8.60;81.80;;;;;;4968002;28;20027;-65
2020/12/05 10:07:02;;;;;;;10.75;6.03;;;8.60;81.90;;;;;;4971079;28;20046;-64
2020/12/05 10:09:28;;;;;;;13.15;5.72;;;8.60;81.70;;;;;;4961548;28;20047;-67
2020/12/05 10:11:54;;;;;;;10.55;5.18;;;8.60;81.70;;;;;;4973011;28;20022;-66
2020/12/05 10:14:19;;;;;;;10.77;5.65;;;8.60;81.80;;;;;;4971733;28;20371;-65
2020/12/05 10:16:45;;;;;;;9.75;5.50;;;8.60;81.90;;;;;;4970525;28;20434;-65
2020/12/05 10:19:11;;;;;;;10.75;5.13;;;8.60;81.90;;;;;;4973472;28;20105;-64
2020/12/05 10:21:36;;;;;;;10.85;4.93;;;8.60;81.90;;;;;;4971065;28;20034;-65
2020/12/05 10:24:02;;;;;;;11.10;4.95;;;8.60;81.70;;;;;;4964554;28;20074;-64
2020/12/05 10:26:28;;;;;;;11.77;4.97;;;8.60;81.60;;;;;;4971255;28;20130;-64
2020/12/05 10:28:53;;;;;;;11.07;5.32;;;8.60;81.80;;;;;;4965166;28;20035;-65
2020/12/05 10:31:19;;;;;;;10.75;5.00;;;8.60;81.80;;;;;;4969294;28;20034;-65
2020/12/05 10:33:45;;;;;;;11.68;6.18;;;8.60;81.80;;;;;;4971638;28;20042;-65
2020/12/05 10:36:10;;;;;;;11.05;5.57;;;8.60;82.10;;;;;;4961179;28;20030;-64
2020/12/05 10:38:36;;;;;;;8.70;4.57;;;8.60;81.70;;;;;;4979097;28;20034;-66
2020/12/05 10:41:02;;;;;;;8.02;4.63;;;8.60;81.60;;;;;;4962433;28;20035;-65
2020/12/05 10:43:28;;;;;;;12.57;6.10;;;8.60;81.70;;;;;;4964008;28;20039;-64
2020/12/05 10:45:53;;;;;;;11.77;5.70;;;8.60;81.50;;;;;;4970778;28;20062;-66
2020/12/05 10:48:19;;;;;;;10.63;5.53;;;8.60;81.90;;;;;;4956320;28;20125;-65
2020/12/05 10:50:45;;;;;;;10.38;6.05;;;8.60;81.90;;;;;;4959367;28;20030;-64
2020/12/05 10:53:10;;;;;;;8.75;4.13;;;8.60;82.50;;;;;;4969816;28;20516;-64
2020/12/05 10:55:36;;;;;;;10.18;5.35;;;8.70;82.10;;;;;;4969610;28;20019;-65
2020/12/05 10:58:01;;;;;;;14.93;6.25;;;8.70;81.80;;;;;;4958522;28;20058;-65
2020/12/05 11:00:27;;;;;;;9.15;5.32;;;8.70;82.00;;;;;;4966277;28;20126;-64
2020/12/05 11:02:52;;;;;;;10.93;5.82;;;8.70;81.80;;;;;;4963468;28;20050;-64
2020/12/05 11:05:18;;;;;;;11.60;5.47;;;8.70;82.10;;;;;;4971422;28;20093;-65
2020/12/05 11:07:44;;;;;;;13.80;6.30;;;8.70;82.00;;;;;;4971731;28;20042;-65
2020/12/05 11:10:09;;;;;;;11.57;6.20;;;8.70;82.00;;;;;;4971516;28;20473;-66
2020/12/05 11:12:35;;;;;;;10.18;5.40;;;8.70;82.10;;;;;;4964899;28;22243;-65
2020/12/05 11:15:01;;;;;;;12.93;6.72;;;8.70;82.00;;;;;;4969887;28;20015;-66
2020/12/05 11:17:27;;;;;;;13.98;6.38;;;8.70;81.80;;;;;;4967497;28;20033;-64
2020/12/05 11:19:53;;;;;;;11.80;5.18;;;8.70;81.80;;;;;;4963579;28;20169;-64
2020/12/05 11:22:18;;;;;;;8.60;4.32;;;8.70;82.00;;;;;;4964123;28;20181;-64
2020/12/05 11:24:44;;;;;;;7.63;4.68;;;8.70;82.00;;;;;;4971154;28;20481;-65
2020/12/05 11:27:09;;;;;;;9.70;4.90;;;8.70;82.10;;;;;;4971093;28;20070;-65
2020/12/05 11:29:35;;;;;;;7.90;4.80;;;8.70;82.00;;;;;;4959633;28;20564;-66
2020/12/05 11:32:01;;;;;;;9.88;5.28;;;8.70;82.20;;;;;;4970654;28;20046;-65
2020/12/05 11:34:26;;;;;;;7.88;4.80;;;8.70;81.90;;;;;;4968792;28;20031;-66
2020/12/05 11:36:52;;;;;;;8.35;4.55;;;8.70;82.00;;;;;;4965524;28;20027;-64
2020/12/05 11:39:18;;;;;;;9.15;5.10;;;8.70;82.00;;;;;;4967730;28;20082;-65
2020/12/05 11:41:45;;;;;;;8.30;5.47;;;8.70;81.90;;;;;;4966547;28;20113;-65
2020/12/05 11:44:11;;;;;;;9.40;5.03;;;8.70;81.90;;;;;;4972160;28;20494;-64
2020/12/05 11:46:37;;;;;;;10.90;5.68;;;8.70;82.00;;;;;;4959185;28;20071;-64
2020/12/05 11:49:02;;;;;;;8.13;5.20;;;8.80;81.90;;;;;;4971116;28;20034;-65
2020/12/05 11:51:28;;;;;;;10.73;6.15;;;8.70;82.20;;;;;;4970293;28;20066;-66
2020/12/05 11:53:54;;;;;;;13.20;6.00;;;8.70;82.00;;;;;;4966899;28;20034;-64
2020/12/05 11:56:21;;;;;;;11.10;5.72;;;8.80;82.10;;;;;;4968161;28;20035;-65
2020/12/05 11:58:47;;;;;;;17.20;7.40;;;8.80;82.10;;;;;;4969253;28;20144;-65
2020/12/05 12:01:12;;;;;;;13.45;7.53;;;8.80;82.20;;;;;;4969191;28;20113;-66
2020/12/05 12:03:38;;;;;;;19.23;7.57;;;8.80;82.30;;;;;;4969095;28;20121;-65
2020/12/05 12:06:06;;;;;;;18.17;8.23;;;8.80;82.40;;;;;;4970071;28;20031;-65
2020/12/05 12:08:33;;;;;;;12.93;6.45;;;8.80;82.10;;;;;;4959004;28;20022;-64
2020/12/05 12:10:59;;;;;;;17.02;7.78;;;8.80;83.00;;;;;;4968008;28;20030;-63
2020/12/05 12:13:25;;;;;;;14.70;7.70;;;8.80;82.10;;;;;;4963935;28;20073;-63
2020/12/05 12:15:50;;;;;;;13.57;7.18;;;8.80;82.50;;;;;;4959987;28;20054;-61
2020/12/05 12:18:16;;;;;;;17.30;8.55;;;8.70;81.00;;;;;;4960535;28;20030;-62
2020/12/05 12:20:41;;;;;;;15.13;7.47;;;8.50;80.30;;;;;;4960390;28;20031;-62
2020/12/05 12:23:07;;;;;;;13.23;6.70;;;8.30;80.80;;;;;;4968587;28;20058;-62
2020/12/05 12:25:33;;;;;;;15.48;8.43;;;8.10;81.80;;;;;;4957773;28;20037;-61
2020/12/05 12:27:58;;;;;;;16.10;7.53;;;8.00;81.20;;;;;;4956998;28;20096;-64
2020/12/05 12:30:24;;;;;;;25.10;10.80;;;8.00;82.50;;;;;;4966829;28;20251;-65
2020/12/05 12:32:49;;;;;;;18.48;8.30;;;8.10;83.40;;;;;;4959823;28;20027;-65
2020/12/05 12:35:15;;;;;;;22.33;9.50;;;8.20;82.90;;;;;;4960903;28;20035;-66
2020/12/05 12:37:41;;;;;;;37.53;16.75;;;8.30;82.30;;;;;;4964478;28;20156;-65
2020/12/05 12:40:06;;;;;;;18.48;9.20;;;8.40;81.80;;;;;;4962221;28;20034;-64
2020/12/05 12:42:32;;;;;;;18.65;8.32;;;8.50;81.50;;;;;;4955031;28;20073;-65
2020/12/05 12:44:57;;;;;;;14.00;8.00;;;8.50;81.20;;;;;;4966392;28;20508;-64
2020/12/05 12:49:58;;;;;;;17.10;7.55;;;8.50;81.10;;;;;;4969026;28;20420;-65